Overview Statistics Trail Chart Weather Telemetry Raw packets
 

This is the latest recevied weather packets stored in our database for station/object KF0WJA. If no packets are shown the sender has not sent any weather packets the latest 10 day(s).

<< 64 65 66 67 68 69 70 >>
Time Temp. Humidity Pressure Rain* Wind** Luminosity Snow
1788217234 37.22° C 31% 1015.4 hPa 0 mm - 266 W/m² -
1788216929 37.22° C 31% 1015.5 hPa 0 mm - 279 W/m² -
1788216624 37.78° C 32% 1015.5 hPa 0 mm - 303 W/m² -
1788216319 37.78° C 30% 1015.4 hPa 0 mm - 321 W/m² -
1788216022 37.78° C 30% 1015.6 hPa 0 mm - 318 W/m² -
1788215710 37.78° C 30% 1015.6 hPa 0 mm - 353 W/m² -
1788215406 37.78° C 30% 1015.4 hPa 0 mm - 379 W/m² -
1788215102 37.78° C 30% 1015.6 hPa 0 mm - 396 W/m² -
1788214801 37.78° C 30% 1015.4 hPa 0 mm - 400 W/m² -
1788214497 38.89° C 30% 1016 hPa 0 mm - 410 W/m² -
1788214192 38.33° C 31% 1015.7 hPa 0 mm - 424 W/m² -
1788213888 38.33° C 31% 1015.8 hPa 0 mm - 425 W/m² -
1788213582 37.78° C 31% 1015.7 hPa 0 mm - 439 W/m² -
1788213278 38.33° C 29% 1016 hPa 0 mm - 427 W/m² -
1788212974 38.33° C 30% 1015.9 hPa 0 mm - 453 W/m² -
1788212671 38.33° C 31% 1015.9 hPa 0 mm - 448 W/m² -
1788212367 37.78° C 31% 1016 hPa 0 mm - 448 W/m² -
1788212064 37.78° C 31% 1015.6 hPa 0 mm - 494 W/m² -
1788211763 37.78° C 30% 1015.8 hPa 0 mm - 503 W/m² -
1788211460 37.78° C 30% 1015.9 hPa 0 mm - 511 W/m² -
1788211159 37.78° C 30% 1015.9 hPa 0 mm - 529 W/m² -
1788210855 38.33° C 31% 1015.9 hPa 0 mm - 548 W/m² -
1788210554 38.33° C 32% 1015.9 hPa 0 mm - 553 W/m² -
1788210249 38.33° C 31% 1015.6 hPa 0 mm - 552 W/m² -
1788209945 38.89° C 31% 1015.9 hPa 0 mm - 558 W/m² -

* Rain latest hour (hover to see other rain measurements)
** Current wind speed in m/s (hover to see current wind gust speed)